< Typhoon 201608 2016 Season Typhoon 201610 >
Typhoon 201609 (MINDULLE)
General InformationTrack Information on Google MapsDetailed Wind InformationForecast History on Google MapsAccess Analytics MapList of All Images || NewsDisaster Info.WeblogTrackbackTyphoon FrontTwiphoonTyphoon Now!Typhoon ImaginationDisaster Info. XMLResourceGoogle EarthGE AnimationAtom FeedGeoJSON
Detalied Best Track (Time Zone = UTC)
Year Month Day Hour Lat. Long. Pressure (hPa) Wind (kt) Class Image Chart
2016 8 17 00 15.3 138.9 1002 0 2 Image Chart
2016 8 17 06 15.2 139.9 998 0 2 Image Chart
2016 8 17 12 15.2 140.7 998 0 2 Image Chart
2016 8 17 18 15.1 141.3 996 0 2 Image Chart
2016 8 18 00 15.2 142.0 996 0 2 Image Chart
2016 8 18 06 15.6 142.8 996 0 2 Image Chart
2016 8 18 12 16.1 143.1 996 0 2 Image Chart
2016 8 18 18 16.6 143.1 996 0 2 Image Chart
2016 8 19 00 17.2 142.5 996 0 2 Image Chart
2016 8 19 06 17.8 141.8 994 35 3 Image Chart
2016 8 19 12 18.7 140.9 994 35 3 Image Chart
2016 8 19 18 19.4 140.6 992 40 3 Image Chart
2016 8 20 00 20.4 140.8 992 40 3 Image Chart
2016 8 20 06 22.1 141.0 990 45 3 Image Chart
2016 8 20 12 24.4 141.1 985 50 4 Image Chart
2016 8 20 18 26.2 140.8 985 50 4 Image Chart
2016 8 21 00 28.0 140.6 985 50 4 Image Chart
2016 8 21 06 29.8 139.9 985 50 4 Image Chart
2016 8 21 12 31.5 139.5 980 55 4 Image Chart
2016 8 21 15 32.3 139.2 980 55 4 Image Chart
2016 8 21 18 33.1 139.4 975 65 5 Image Chart
2016 8 21 21 33.8 139.3 975 65 5 Image Chart
2016 8 22 00 34.2 139.5 975 65 5 Image Chart
2016 8 22 03 34.8 139.8 975 65 5 Image Chart
2016 8 22 06 35.9 140.0 980 60 4 Image Chart
2016 8 22 09 36.6 140.3 985 55 4 Image Chart
2016 8 22 12 37.8 140.8 990 55 4 Image Chart
2016 8 22 15 38.9 141.1 990 55 4 Image Chart
2016 8 22 18 40.4 141.9 992 50 4 Image Chart
2016 8 22 20 41.8 142.3 992 50 4 Image Chart
2016 8 22 21 42.4 142.6 992 50 4 Image Chart
2016 8 23 00 43.6 143.8 992 50 4 Image Chart
2016 8 23 03 45.1 145.3 992 0 6 Image Chart
Japan Meteorological Agency Best Track Data | Correction Date : 2016-09-27
< Typhoon 201608 2016 Season Typhoon 201610 >

Help